sensor_id;sensor_type;location;lat;lon;timestamp;P1;durP1;ratioP1;P2;durP2;ratioP2
47860;SDS011;33620;52.340;5.984;2023-08-20T00:01:45;13.00;;;5.75;;
47860;SDS011;33620;52.340;5.984;2023-08-20T00:04:10;13.90;;;5.53;;
47860;SDS011;33620;52.340;5.984;2023-08-20T00:06:37;13.13;;;5.95;;
47860;SDS011;33620;52.340;5.984;2023-08-20T00:09:03;14.00;;;5.70;;
47860;SDS011;33620;52.340;5.984;2023-08-20T00:11:29;11.48;;;5.88;;
47860;SDS011;33620;52.340;5.984;2023-08-20T00:13:54;15.25;;;5.38;;
47860;SDS011;33620;52.340;5.984;2023-08-20T00:16:20;12.02;;;6.05;;
47860;SDS011;33620;52.340;5.984;2023-08-20T00:18:45;12.07;;;5.82;;
47860;SDS011;33620;52.340;5.984;2023-08-20T00:21:11;12.25;;;5.78;;
47860;SDS011;33620;52.340;5.984;2023-08-20T00:23:38;9.73;;;4.82;;
47860;SDS011;33620;52.340;5.984;2023-08-20T00:26:04;11.25;;;5.45;;
47860;SDS011;33620;52.340;5.984;2023-08-20T00:28:30;12.73;;;5.57;;
47860;SDS011;33620;52.340;5.984;2023-08-20T00:30:58;12.45;;;5.45;;
47860;SDS011;33620;52.340;5.984;2023-08-20T00:33:23;14.75;;;6.07;;
47860;SDS011;33620;52.340;5.984;2023-08-20T00:35:49;12.50;;;6.00;;
47860;SDS011;33620;52.340;5.984;2023-08-20T00:38:14;13.43;;;5.90;;
47860;SDS011;33620;52.340;5.984;2023-08-20T00:40:39;10.05;;;5.13;;
47860;SDS011;33620;52.340;5.984;2023-08-20T00:43:05;13.57;;;5.65;;
47860;SDS011;33620;52.340;5.984;2023-08-20T00:45:31;12.98;;;5.47;;
47860;SDS011;33620;52.340;5.984;2023-08-20T00:47:57;11.60;;;5.50;;
47860;SDS011;33620;52.340;5.984;2023-08-20T00:50:22;11.38;;;5.53;;
47860;SDS011;33620;52.340;5.984;2023-08-20T00:52:48;9.70;;;5.45;;
47860;SDS011;33620;52.340;5.984;2023-08-20T00:55:13;12.43;;;5.30;;
47860;SDS011;33620;52.340;5.984;2023-08-20T00:57:39;14.68;;;5.80;;
47860;SDS011;33620;52.340;5.984;2023-08-20T01:00:06;11.38;;;5.63;;
47860;SDS011;33620;52.340;5.984;2023-08-20T01:02:35;11.35;;;4.72;;
47860;SDS011;33620;52.340;5.984;2023-08-20T01:05:01;14.85;;;5.57;;
47860;SDS011;33620;52.340;5.984;2023-08-20T01:07:33;10.98;;;5.60;;
47860;SDS011;33620;52.340;5.984;2023-08-20T01:10:21;14.18;;;5.38;;
47860;SDS011;33620;52.340;5.984;2023-08-20T01:12:59;11.07;;;5.30;;
47860;SDS011;33620;52.340;5.984;2023-08-20T01:15:25;11.75;;;5.47;;
47860;SDS011;33620;52.340;5.984;2023-08-20T01:17:51;14.52;;;6.13;;
47860;SDS011;33620;52.340;5.984;2023-08-20T01:20:16;11.80;;;5.82;;
47860;SDS011;33620;52.340;5.984;2023-08-20T01:25:59;13.00;;;5.88;;
47860;SDS011;33620;52.340;5.984;2023-08-20T01:28:36;11.52;;;5.93;;
47860;SDS011;33620;52.340;5.984;2023-08-20T01:31:04;11.43;;;5.85;;
47860;SDS011;33620;52.340;5.984;2023-08-20T01:33:30;16.52;;;5.40;;
47860;SDS011;33620;52.340;5.984;2023-08-20T01:35:56;11.82;;;4.88;;
47860;SDS011;33620;52.340;5.984;2023-08-20T01:38:22;12.48;;;5.00;;
47860;SDS011;33620;52.340;5.984;2023-08-20T01:40:47;13.05;;;5.32;;
47860;SDS011;33620;52.340;5.984;2023-08-20T01:43:13;13.02;;;4.97;;
47860;SDS011;33620;52.340;5.984;2023-08-20T01:45:39;11.30;;;4.75;;
47860;SDS011;33620;52.340;5.984;2023-08-20T01:48:04;12.90;;;4.68;;
47860;SDS011;33620;52.340;5.984;2023-08-20T01:50:30;13.98;;;6.00;;
47860;SDS011;33620;52.340;5.984;2023-08-20T01:52:55;9.60;;;4.75;;
47860;SDS011;33620;52.340;5.984;2023-08-20T01:55:21;9.75;;;4.57;;
47860;SDS011;33620;52.340;5.984;2023-08-20T01:57:46;12.10;;;4.88;;
47860;SDS011;33620;52.340;5.984;2023-08-20T02:00:12;7.13;;;3.70;;
47860;SDS011;33620;52.340;5.984;2023-08-20T02:02:38;12.10;;;4.70;;
47860;SDS011;33620;52.340;5.984;2023-08-20T02:05:03;11.52;;;4.20;;
47860;SDS011;33620;52.340;5.984;2023-08-20T02:07:29;10.40;;;4.18;;
47860;SDS011;33620;52.340;5.984;2023-08-20T02:09:54;12.80;;;4.13;;
47860;SDS011;33620;52.340;5.984;2023-08-20T02:12:20;12.05;;;4.72;;
47860;SDS011;33620;52.340;5.984;2023-08-20T02:14:45;9.23;;;4.18;;
47860;SDS011;33620;52.340;5.984;2023-08-20T02:17:11;9.68;;;4.40;;
47860;SDS011;33620;52.340;5.984;2023-08-20T02:19:37;10.73;;;4.55;;
47860;SDS011;33620;52.340;5.984;2023-08-20T02:22:03;10.57;;;4.30;;
47860;SDS011;33620;52.340;5.984;2023-08-20T02:24:28;10.23;;;3.80;;
47860;SDS011;33620;52.340;5.984;2023-08-20T02:26:54;10.90;;;4.60;;
47860;SDS011;33620;52.340;5.984;2023-08-20T02:29:19;7.72;;;4.10;;
47860;SDS011;33620;52.340;5.984;2023-08-20T02:31:44;12.40;;;4.35;;
47860;SDS011;33620;52.340;5.984;2023-08-20T02:34:10;10.75;;;4.10;;
47860;SDS011;33620;52.340;5.984;2023-08-20T02:36:35;10.35;;;4.72;;
47860;SDS011;33620;52.340;5.984;2023-08-20T02:39:01;10.60;;;3.85;;
47860;SDS011;33620;52.340;5.984;2023-08-20T02:41:28;7.60;;;4.22;;
47860;SDS011;33620;52.340;5.984;2023-08-20T02:43:54;11.00;;;4.63;;
47860;SDS011;33620;52.340;5.984;2023-08-20T02:46:19;8.82;;;3.90;;
47860;SDS011;33620;52.340;5.984;2023-08-20T02:48:44;10.60;;;3.90;;
47860;SDS011;33620;52.340;5.984;2023-08-20T02:51:10;11.73;;;4.70;;
47860;SDS011;33620;52.340;5.984;2023-08-20T02:53:35;11.10;;;4.43;;
47860;SDS011;33620;52.340;5.984;2023-08-20T02:56:00;9.32;;;4.13;;
47860;SDS011;33620;52.340;5.984;2023-08-20T02:58:26;9.88;;;4.00;;
47860;SDS011;33620;52.340;5.984;2023-08-20T03:00:51;12.00;;;4.25;;
47860;SDS011;33620;52.340;5.984;2023-08-20T03:03:18;9.85;;;4.00;;
47860;SDS011;33620;52.340;5.984;2023-08-20T03:05:43;5.93;;;3.65;;
47860;SDS011;33620;52.340;5.984;2023-08-20T03:08:08;9.00;;;4.03;;
47860;SDS011;33620;52.340;5.984;2023-08-20T03:10:35;10.90;;;4.10;;
47860;SDS011;33620;52.340;5.984;2023-08-20T03:13:00;12.05;;;4.93;;
47860;SDS011;33620;52.340;5.984;2023-08-20T03:15:27;10.55;;;4.38;;
47860;SDS011;33620;52.340;5.984;2023-08-20T03:17:53;11.07;;;4.22;;
47860;SDS011;33620;52.340;5.984;2023-08-20T03:20:18;10.10;;;4.47;;
47860;SDS011;33620;52.340;5.984;2023-08-20T03:22:44;11.35;;;4.50;;
47860;SDS011;33620;52.340;5.984;2023-08-20T03:25:09;7.25;;;4.18;;
47860;SDS011;33620;52.340;5.984;2023-08-20T03:27:34;9.05;;;4.45;;
47860;SDS011;33620;52.340;5.984;2023-08-20T03:30:00;8.82;;;3.97;;
47860;SDS011;33620;52.340;5.984;2023-08-20T03:32:26;11.38;;;5.13;;
47860;SDS011;33620;52.340;5.984;2023-08-20T03:34:52;12.80;;;4.50;;
47860;SDS011;33620;52.340;5.984;2023-08-20T03:37:18;11.02;;;4.47;;
47860;SDS011;33620;52.340;5.984;2023-08-20T03:39:44;10.30;;;4.90;;
47860;SDS011;33620;52.340;5.984;2023-08-20T03:42:09;10.60;;;4.43;;
47860;SDS011;33620;52.340;5.984;2023-08-20T03:44:35;7.90;;;4.45;;
47860;SDS011;33620;52.340;5.984;2023-08-20T03:47:00;8.88;;;4.72;;
47860;SDS011;33620;52.340;5.984;2023-08-20T03:49:26;12.93;;;5.20;;
47860;SDS011;33620;52.340;5.984;2023-08-20T03:51:51;9.68;;;4.65;;
47860;SDS011;33620;52.340;5.984;2023-08-20T03:54:16;9.38;;;4.95;;
47860;SDS011;33620;52.340;5.984;2023-08-20T03:56:42;9.20;;;4.18;;
47860;SDS011;33620;52.340;5.984;2023-08-20T03:59:07;10.02;;;4.22;;
47860;SDS011;33620;52.340;5.984;2023-08-20T04:01:33;11.15;;;4.20;;
47860;SDS011;33620;52.340;5.984;2023-08-20T04:04:00;9.02;;;4.75;;
47860;SDS011;33620;52.340;5.984;2023-08-20T04:06:26;9.48;;;4.22;;
47860;SDS011;33620;52.340;5.984;2023-08-20T04:08:51;8.02;;;3.92;;
47860;SDS011;33620;52.340;5.984;2023-08-20T04:11:17;10.68;;;4.47;;
47860;SDS011;33620;52.340;5.984;2023-08-20T04:13:42;9.23;;;4.65;;
47860;SDS011;33620;52.340;5.984;2023-08-20T04:16:08;9.57;;;4.10;;
47860;SDS011;33620;52.340;5.984;2023-08-20T04:18:34;8.30;;;4.68;;
47860;SDS011;33620;52.340;5.984;2023-08-20T04:20:59;7.47;;;3.75;;
47860;SDS011;33620;52.340;5.984;2023-08-20T04:23:25;8.85;;;4.13;;
47860;SDS011;33620;52.340;5.984;2023-08-20T04:25:50;7.57;;;4.25;;
47860;SDS011;33620;52.340;5.984;2023-08-20T04:28:16;8.43;;;3.85;;
47860;SDS011;33620;52.340;5.984;2023-08-20T04:30:41;9.60;;;3.70;;
47860;SDS011;33620;52.340;5.984;2023-08-20T04:33:07;10.10;;;4.60;;
47860;SDS011;33620;52.340;5.984;2023-08-20T04:35:33;8.25;;;3.90;;
47860;SDS011;33620;52.340;5.984;2023-08-20T04:37:58;13.30;;;4.53;;
47860;SDS011;33620;52.340;5.984;2023-08-20T04:40:24;10.60;;;4.32;;
47860;SDS011;33620;52.340;5.984;2023-08-20T04:42:50;8.63;;;3.80;;
47860;SDS011;33620;52.340;5.984;2023-08-20T04:45:16;9.32;;;4.22;;
47860;SDS011;33620;52.340;5.984;2023-08-20T04:47:44;10.07;;;4.35;;
47860;SDS011;33620;52.340;5.984;2023-08-20T04:50:09;8.45;;;3.72;;
47860;SDS011;33620;52.340;5.984;2023-08-20T04:52:35;7.40;;;3.80;;
47860;SDS011;33620;52.340;5.984;2023-08-20T04:55:01;10.05;;;4.30;;
47860;SDS011;33620;52.340;5.984;2023-08-20T04:57:27;7.88;;;4.55;;
47860;SDS011;33620;52.340;5.984;2023-08-20T04:59:52;8.02;;;4.03;;
47860;SDS011;33620;52.340;5.984;2023-08-20T05:02:17;10.63;;;3.88;;
47860;SDS011;33620;52.340;5.984;2023-08-20T05:04:43;11.80;;;4.05;;
47860;SDS011;33620;52.340;5.984;2023-08-20T05:07:08;11.30;;;4.65;;
47860;SDS011;33620;52.340;5.984;2023-08-20T05:09:34;5.68;;;3.65;;
47860;SDS011;33620;52.340;5.984;2023-08-20T05:11:59;8.95;;;4.15;;
47860;SDS011;33620;52.340;5.984;2023-08-20T05:14:25;9.15;;;4.03;;
47860;SDS011;33620;52.340;5.984;2023-08-20T05:16:50;12.15;;;4.35;;
47860;SDS011;33620;52.340;5.984;2023-08-20T05:19:15;14.70;;;4.50;;
47860;SDS011;33620;52.340;5.984;2023-08-20T05:21:41;9.98;;;4.43;;
47860;SDS011;33620;52.340;5.984;2023-08-20T05:24:06;9.63;;;4.40;;
47860;SDS011;33620;52.340;5.984;2023-08-20T05:26:32;11.00;;;4.07;;
47860;SDS011;33620;52.340;5.984;2023-08-20T05:28:57;6.03;;;3.72;;
47860;SDS011;33620;52.340;5.984;2023-08-20T05:31:22;12.38;;;4.25;;
47860;SDS011;33620;52.340;5.984;2023-08-20T05:33:48;11.02;;;3.92;;
47860;SDS011;33620;52.340;5.984;2023-08-20T05:36:14;12.70;;;4.30;;
47860;SDS011;33620;52.340;5.984;2023-08-20T05:38:39;8.57;;;4.18;;
47860;SDS011;33620;52.340;5.984;2023-08-20T05:41:07;9.73;;;4.03;;
47860;SDS011;33620;52.340;5.984;2023-08-20T05:43:32;11.43;;;4.38;;
47860;SDS011;33620;52.340;5.984;2023-08-20T05:45:58;9.45;;;4.10;;
47860;SDS011;33620;52.340;5.984;2023-08-20T05:48:23;11.25;;;4.78;;
47860;SDS011;33620;52.340;5.984;2023-08-20T05:50:48;9.40;;;4.20;;
47860;SDS011;33620;52.340;5.984;2023-08-20T05:53:14;14.68;;;5.60;;
47860;SDS011;33620;52.340;5.984;2023-08-20T05:55:39;15.80;;;5.10;;
47860;SDS011;33620;52.340;5.984;2023-08-20T05:58:05;10.05;;;4.22;;
47860;SDS011;33620;52.340;5.984;2023-08-20T06:00:30;9.98;;;4.63;;
47860;SDS011;33620;52.340;5.984;2023-08-20T06:02:55;12.85;;;5.10;;
47860;SDS011;33620;52.340;5.984;2023-08-20T06:05:21;15.73;;;5.18;;
47860;SDS011;33620;52.340;5.984;2023-08-20T06:07:46;13.98;;;5.10;;
47860;SDS011;33620;52.340;5.984;2023-08-20T06:10:12;14.35;;;5.43;;
47860;SDS011;33620;52.340;5.984;2023-08-20T06:12:37;13.32;;;5.63;;
47860;SDS011;33620;52.340;5.984;2023-08-20T06:15:03;20.15;;;6.80;;
47860;SDS011;33620;52.340;5.984;2023-08-20T06:17:29;19.38;;;6.20;;
47860;SDS011;33620;52.340;5.984;2023-08-20T06:19:54;13.00;;;5.53;;
47860;SDS011;33620;52.340;5.984;2023-08-20T06:22:19;16.38;;;5.55;;
47860;SDS011;33620;52.340;5.984;2023-08-20T06:24:45;15.43;;;5.38;;
47860;SDS011;33620;52.340;5.984;2023-08-20T06:27:10;14.25;;;6.45;;
47860;SDS011;33620;52.340;5.984;2023-08-20T06:29:35;16.73;;;6.07;;
47860;SDS011;33620;52.340;5.984;2023-08-20T06:32:01;20.27;;;7.03;;
47860;SDS011;33620;52.340;5.984;2023-08-20T06:34:27;21.83;;;6.18;;
47860;SDS011;33620;52.340;5.984;2023-08-20T06:36:52;16.55;;;5.75;;
47860;SDS011;33620;52.340;5.984;2023-08-20T06:39:18;16.17;;;6.30;;
47860;SDS011;33620;52.340;5.984;2023-08-20T06:41:44;17.75;;;7.03;;
47860;SDS011;33620;52.340;5.984;2023-08-20T06:44:10;16.23;;;6.82;;
47860;SDS011;33620;52.340;5.984;2023-08-20T06:46:35;17.95;;;7.40;;
47860;SDS011;33620;52.340;5.984;2023-08-20T06:49:01;17.58;;;7.25;;
47860;SDS011;33620;52.340;5.984;2023-08-20T06:51:26;16.83;;;6.07;;
47860;SDS011;33620;52.340;5.984;2023-08-20T06:53:53;15.32;;;6.00;;
47860;SDS011;33620;52.340;5.984;2023-08-20T06:56:19;21.13;;;7.25;;
47860;SDS011;33620;52.340;5.984;2023-08-20T06:58:45;17.02;;;5.88;;
47860;SDS011;33620;52.340;5.984;2023-08-20T07:01:11;19.65;;;6.00;;
47860;SDS011;33620;52.340;5.984;2023-08-20T07:03:38;20.33;;;6.10;;
47860;SDS011;33620;52.340;5.984;2023-08-20T07:06:04;15.23;;;5.35;;
47860;SDS011;33620;52.340;5.984;2023-08-20T07:08:30;16.17;;;5.40;;
47860;SDS011;33620;52.340;5.984;2023-08-20T07:10:56;20.42;;;6.15;;
47860;SDS011;33620;52.340;5.984;2023-08-20T07:13:22;18.42;;;5.22;;
47860;SDS011;33620;52.340;5.984;2023-08-20T07:15:48;16.73;;;5.20;;
47860;SDS011;33620;52.340;5.984;2023-08-20T07:18:14;16.63;;;4.97;;
47860;SDS011;33620;52.340;5.984;2023-08-20T07:20:40;15.75;;;4.15;;
47860;SDS011;33620;52.340;5.984;2023-08-20T07:23:07;20.45;;;4.63;;
47860;SDS011;33620;52.340;5.984;2023-08-20T07:25:33;17.00;;;4.70;;
47860;SDS011;33620;52.340;5.984;2023-08-20T07:28:01;13.27;;;3.60;;
47860;SDS011;33620;52.340;5.984;2023-08-20T07:30:27;16.60;;;4.35;;
47860;SDS011;33620;52.340;5.984;2023-08-20T07:32:53;14.43;;;4.38;;
47860;SDS011;33620;52.340;5.984;2023-08-20T07:35:18;16.13;;;4.00;;
47860;SDS011;33620;52.340;5.984;2023-08-20T07:37:44;13.80;;;3.65;;
47860;SDS011;33620;52.340;5.984;2023-08-20T07:40:11;14.50;;;3.75;;
47860;SDS011;33620;52.340;5.984;2023-08-20T07:42:37;15.15;;;4.32;;
47860;SDS011;33620;52.340;5.984;2023-08-20T07:45:02;12.50;;;3.78;;
47860;SDS011;33620;52.340;5.984;2023-08-20T07:47:28;18.70;;;4.57;;
47860;SDS011;33620;52.340;5.984;2023-08-20T07:49:54;14.98;;;3.88;;
47860;SDS011;33620;52.340;5.984;2023-08-20T07:52:20;15.77;;;4.13;;
47860;SDS011;33620;52.340;5.984;2023-08-20T07:54:45;15.38;;;4.32;;
47860;SDS011;33620;52.340;5.984;2023-08-20T07:57:11;11.18;;;3.30;;
47860;SDS011;33620;52.340;5.984;2023-08-20T07:59:37;12.38;;;3.40;;
47860;SDS011;33620;52.340;5.984;2023-08-20T08:02:02;16.20;;;4.05;;
47860;SDS011;33620;52.340;5.984;2023-08-20T08:04:28;8.90;;;3.17;;
47860;SDS011;33620;52.340;5.984;2023-08-20T08:06:53;11.10;;;3.22;;
47860;SDS011;33620;52.340;5.984;2023-08-20T08:09:25;13.23;;;3.28;;
47860;SDS011;33620;52.340;5.984;2023-08-20T08:11:52;12.73;;;2.88;;
47860;SDS011;33620;52.340;5.984;2023-08-20T08:14:17;10.15;;;3.15;;
47860;SDS011;33620;52.340;5.984;2023-08-20T08:16:44;12.80;;;2.70;;
47860;SDS011;33620;52.340;5.984;2023-08-20T08:19:10;12.02;;;2.75;;
47860;SDS011;33620;52.340;5.984;2023-08-20T08:21:36;13.02;;;2.67;;
47860;SDS011;33620;52.340;5.984;2023-08-20T08:24:01;8.63;;;2.20;;
47860;SDS011;33620;52.340;5.984;2023-08-20T08:26:27;10.80;;;2.20;;
47860;SDS011;33620;52.340;5.984;2023-08-20T08:28:53;9.13;;;3.00;;
47860;SDS011;33620;52.340;5.984;2023-08-20T08:31:18;8.30;;;2.50;;
47860;SDS011;33620;52.340;5.984;2023-08-20T08:33:44;5.53;;;2.15;;
47860;SDS011;33620;52.340;5.984;2023-08-20T08:36:09;8.15;;;2.42;;
47860;SDS011;33620;52.340;5.984;2023-08-20T08:38:36;9.88;;;2.35;;
47860;SDS011;33620;52.340;5.984;2023-08-20T08:41:02;6.78;;;2.17;;
47860;SDS011;33620;52.340;5.984;2023-08-20T08:43:30;7.15;;;2.50;;
47860;SDS011;33620;52.340;5.984;2023-08-20T08:45:56;7.45;;;1.95;;
47860;SDS011;33620;52.340;5.984;2023-08-20T08:48:22;8.40;;;2.30;;
47860;SDS011;33620;52.340;5.984;2023-08-20T08:50:49;6.65;;;2.17;;
47860;SDS011;33620;52.340;5.984;2023-08-20T08:53:15;4.45;;;2.25;;
47860;SDS011;33620;52.340;5.984;2023-08-20T08:55:40;8.05;;;2.40;;
47860;SDS011;33620;52.340;5.984;2023-08-20T08:58:06;8.82;;;2.30;;
47860;SDS011;33620;52.340;5.984;2023-08-20T09:00:31;10.73;;;2.30;;
47860;SDS011;33620;52.340;5.984;2023-08-20T09:02:57;6.43;;;2.60;;
47860;SDS011;33620;52.340;5.984;2023-08-20T09:05:23;6.80;;;1.77;;
47860;SDS011;33620;52.340;5.984;2023-08-20T09:07:50;5.78;;;1.85;;
47860;SDS011;33620;52.340;5.984;2023-08-20T09:10:21;7.05;;;2.13;;
47860;SDS011;33620;52.340;5.984;2023-08-20T09:12:47;7.72;;;2.30;;
47860;SDS011;33620;52.340;5.984;2023-08-20T09:15:13;7.35;;;1.70;;
47860;SDS011;33620;52.340;5.984;2023-08-20T09:17:40;6.22;;;1.85;;
47860;SDS011;33620;52.340;5.984;2023-08-20T09:20:06;5.70;;;1.60;;
47860;SDS011;33620;52.340;5.984;2023-08-20T09:22:32;5.50;;;1.55;;
47860;SDS011;33620;52.340;5.984;2023-08-20T09:25:00;6.57;;;1.92;;
47860;SDS011;33620;52.340;5.984;2023-08-20T09:27:27;6.75;;;1.73;;
47860;SDS011;33620;52.340;5.984;2023-08-20T09:29:54;5.40;;;1.67;;
47860;SDS011;33620;52.340;5.984;2023-08-20T09:32:21;8.18;;;1.88;;
47860;SDS011;33620;52.340;5.984;2023-08-20T09:34:49;9.02;;;1.77;;
47860;SDS011;33620;52.340;5.984;2023-08-20T09:37:16;4.32;;;1.13;;
47860;SDS011;33620;52.340;5.984;2023-08-20T09:39:42;7.68;;;1.52;;
47860;SDS011;33620;52.340;5.984;2023-08-20T09:42:08;3.00;;;1.00;;
47860;SDS011;33620;52.340;5.984;2023-08-20T09:44:35;7.93;;;1.55;;
47860;SDS011;33620;52.340;5.984;2023-08-20T09:47:02;5.05;;;1.52;;
47860;SDS011;33620;52.340;5.984;2023-08-20T09:49:30;5.45;;;1.27;;
47860;SDS011;33620;52.340;5.984;2023-08-20T09:52:00;5.38;;;1.20;;
47860;SDS011;33620;52.340;5.984;2023-08-20T09:57:24;8.00;;;1.55;;
47860;SDS011;33620;52.340;5.984;2023-08-20T09:59:55;5.10;;;1.25;;
47860;SDS011;33620;52.340;5.984;2023-08-20T10:02:21;8.77;;;1.40;;
47860;SDS011;33620;52.340;5.984;2023-08-20T10:04:47;6.45;;;1.90;;
47860;SDS011;33620;52.340;5.984;2023-08-20T10:07:15;5.32;;;1.35;;
47860;SDS011;33620;52.340;5.984;2023-08-20T10:09:40;7.55;;;1.40;;
47860;SDS011;33620;52.340;5.984;2023-08-20T10:12:11;4.90;;;1.30;;
47860;SDS011;33620;52.340;5.984;2023-08-20T10:14:40;6.07;;;2.00;;
47860;SDS011;33620;52.340;5.984;2023-08-20T10:17:08;6.28;;;1.52;;
47860;SDS011;33620;52.340;5.984;2023-08-20T10:19:37;5.88;;;1.90;;
47860;SDS011;33620;52.340;5.984;2023-08-20T10:22:03;3.17;;;1.00;;
47860;SDS011;33620;52.340;5.984;2023-08-20T10:24:29;5.53;;;1.50;;
47860;SDS011;33620;52.340;5.984;2023-08-20T10:27:09;4.90;;;1.85;;
47860;SDS011;33620;52.340;5.984;2023-08-20T10:29:39;5.95;;;1.48;;
47860;SDS011;33620;52.340;5.984;2023-08-20T10:32:12;6.18;;;1.60;;
47860;SDS011;33620;52.340;5.984;2023-08-20T10:34:39;6.47;;;1.40;;
47860;SDS011;33620;52.340;5.984;2023-08-20T10:37:14;4.28;;;1.42;;
47860;SDS011;33620;52.340;5.984;2023-08-20T10:39:40;4.50;;;1.20;;
47860;SDS011;33620;52.340;5.984;2023-08-20T10:42:09;4.80;;;1.67;;
47860;SDS011;33620;52.340;5.984;2023-08-20T10:47:47;6.15;;;1.60;;
47860;SDS011;33620;52.340;5.984;2023-08-20T10:50:16;4.68;;;1.40;;
47860;SDS011;33620;52.340;5.984;2023-08-20T10:52:50;4.05;;;1.08;;
47860;SDS011;33620;52.340;5.984;2023-08-20T10:55:23;5.20;;;1.40;;
47860;SDS011;33620;52.340;5.984;2023-08-20T10:57:55;4.80;;;1.30;;
47860;SDS011;33620;52.340;5.984;2023-08-20T11:00:22;5.33;;;1.30;;
47860;SDS011;33620;52.340;5.984;2023-08-20T11:02:47;5.70;;;1.48;;
47860;SDS011;33620;52.340;5.984;2023-08-20T11:05:18;4.18;;;1.10;;
47860;SDS011;33620;52.340;5.984;2023-08-20T11:07:45;6.75;;;1.50;;
47860;SDS011;33620;52.340;5.984;2023-08-20T11:10:14;7.50;;;1.10;;
47860;SDS011;33620;52.340;5.984;2023-08-20T11:12:41;4.65;;;1.35;;
47860;SDS011;33620;52.340;5.984;2023-08-20T11:15:13;5.20;;;1.40;;
47860;SDS011;33620;52.340;5.984;2023-08-20T11:17:45;3.65;;;0.90;;
47860;SDS011;33620;52.340;5.984;2023-08-20T11:20:12;2.28;;;1.15;;
47860;SDS011;33620;52.340;5.984;2023-08-20T11:22:39;5.07;;;1.30;;
47860;SDS011;33620;52.340;5.984;2023-08-20T11:25:05;4.68;;;1.15;;
47860;SDS011;33620;52.340;5.984;2023-08-20T11:27:31;6.07;;;1.75;;
47860;SDS011;33620;52.340;5.984;2023-08-20T11:29:57;4.78;;;1.58;;
47860;SDS011;33620;52.340;5.984;2023-08-20T11:32:23;7.95;;;1.60;;
47860;SDS011;33620;52.340;5.984;2023-08-20T11:34:49;9.48;;;1.30;;
47860;SDS011;33620;52.340;5.984;2023-08-20T11:37:17;6.57;;;1.20;;
47860;SDS011;33620;52.340;5.984;2023-08-20T11:39:47;7.43;;;1.65;;
47860;SDS011;33620;52.340;5.984;2023-08-20T11:42:15;5.40;;;1.17;;
47860;SDS011;33620;52.340;5.984;2023-08-20T11:44:45;6.63;;;1.60;;
47860;SDS011;33620;52.340;5.984;2023-08-20T11:47:17;6.43;;;1.85;;
47860;SDS011;33620;52.340;5.984;2023-08-20T11:49:44;6.10;;;1.50;;
47860;SDS011;33620;52.340;5.984;2023-08-20T11:52:10;7.38;;;1.98;;
47860;SDS011;33620;52.340;5.984;2023-08-20T11:54:37;5.97;;;1.33;;
47860;SDS011;33620;52.340;5.984;2023-08-20T11:57:04;10.07;;;1.85;;
47860;SDS011;33620;52.340;5.984;2023-08-20T11:59:30;4.32;;;1.30;;
47860;SDS011;33620;52.340;5.984;2023-08-20T12:01:59;3.72;;;1.10;;
47860;SDS011;33620;52.340;5.984;2023-08-20T12:04:27;3.42;;;1.33;;
47860;SDS011;33620;52.340;5.984;2023-08-20T12:07:09;5.47;;;1.30;;
47860;SDS011;33620;52.340;5.984;2023-08-20T12:09:38;5.13;;;1.10;;
47860;SDS011;33620;52.340;5.984;2023-08-20T12:12:05;3.38;;;1.20;;
47860;SDS011;33620;52.340;5.984;2023-08-20T12:14:31;5.22;;;1.52;;
47860;SDS011;33620;52.340;5.984;2023-08-20T12:16:57;3.22;;;1.17;;
47860;SDS011;33620;52.340;5.984;2023-08-20T12:19:23;8.75;;;1.45;;
47860;SDS011;33620;52.340;5.984;2023-08-20T12:21:49;5.70;;;1.40;;
47860;SDS011;33620;52.340;5.984;2023-08-20T12:24:15;8.65;;;1.58;;
47860;SDS011;33620;52.340;5.984;2023-08-20T12:26:41;5.95;;;1.33;;
47860;SDS011;33620;52.340;5.984;2023-08-20T12:29:07;5.35;;;1.15;;
47860;SDS011;33620;52.340;5.984;2023-08-20T12:31:33;5.20;;;1.52;;
47860;SDS011;33620;52.340;5.984;2023-08-20T12:33:59;5.72;;;1.33;;
47860;SDS011;33620;52.340;5.984;2023-08-20T12:36:25;3.92;;;1.33;;
47860;SDS011;33620;52.340;5.984;2023-08-20T12:38:51;4.63;;;1.20;;
47860;SDS011;33620;52.340;5.984;2023-08-20T12:41:18;4.75;;;1.60;;
47860;SDS011;33620;52.340;5.984;2023-08-20T12:43:46;6.97;;;1.70;;
47860;SDS011;33620;52.340;5.984;2023-08-20T12:46:11;8.48;;;1.73;;
47860;SDS011;33620;52.340;5.984;2023-08-20T12:48:38;5.15;;;1.20;;
47860;SDS011;33620;52.340;5.984;2023-08-20T12:51:04;6.13;;;1.33;;
47860;SDS011;33620;52.340;5.984;2023-08-20T12:53:30;5.47;;;1.40;;
47860;SDS011;33620;52.340;5.984;2023-08-20T12:55:56;8.20;;;1.55;;
47860;SDS011;33620;52.340;5.984;2023-08-20T12:58:22;5.88;;;1.33;;
47860;SDS011;33620;52.340;5.984;2023-08-20T13:00:47;5.15;;;1.45;;
47860;SDS011;33620;52.340;5.984;2023-08-20T13:03:13;5.85;;;1.40;;
47860;SDS011;33620;52.340;5.984;2023-08-20T13:05:38;4.75;;;1.42;;
47860;SDS011;33620;52.340;5.984;2023-08-20T13:08:05;11.70;;;1.95;;
47860;SDS011;33620;52.340;5.984;2023-08-20T13:10:31;5.22;;;1.83;;
47860;SDS011;33620;52.340;5.984;2023-08-20T13:12:59;6.07;;;2.30;;
47860;SDS011;33620;52.340;5.984;2023-08-20T13:15:26;6.45;;;2.00;;
47860;SDS011;33620;52.340;5.984;2023-08-20T13:17:52;7.05;;;1.88;;
47860;SDS011;33620;52.340;5.984;2023-08-20T13:20:18;5.47;;;1.77;;
47860;SDS011;33620;52.340;5.984;2023-08-20T13:22:49;3.83;;;1.45;;
47860;SDS011;33620;52.340;5.984;2023-08-20T13:25:14;10.13;;;2.10;;
47860;SDS011;33620;52.340;5.984;2023-08-20T13:27:40;8.35;;;2.13;;
47860;SDS011;33620;52.340;5.984;2023-08-20T13:30:06;6.00;;;1.48;;
47860;SDS011;33620;52.340;5.984;2023-08-20T13:32:33;6.60;;;1.50;;
47860;SDS011;33620;52.340;5.984;2023-08-20T13:34:59;8.48;;;1.50;;
47860;SDS011;33620;52.340;5.984;2023-08-20T13:37:24;7.30;;;1.63;;
47860;SDS011;33620;52.340;5.984;2023-08-20T13:39:50;4.35;;;1.30;;
47860;SDS011;33620;52.340;5.984;2023-08-20T13:42:16;5.03;;;1.40;;
47860;SDS011;33620;52.340;5.984;2023-08-20T13:44:41;10.43;;;1.67;;
47860;SDS011;33620;52.340;5.984;2023-08-20T13:47:06;7.07;;;1.95;;
47860;SDS011;33620;52.340;5.984;2023-08-20T13:49:32;6.28;;;1.80;;
47860;SDS011;33620;52.340;5.984;2023-08-20T13:51:58;5.28;;;1.55;;
47860;SDS011;33620;52.340;5.984;2023-08-20T13:54:23;10.13;;;2.08;;
47860;SDS011;33620;52.340;5.984;2023-08-20T13:56:49;3.72;;;1.45;;
47860;SDS011;33620;52.340;5.984;2023-08-20T13:59:14;10.00;;;1.58;;
47860;SDS011;33620;52.340;5.984;2023-08-20T14:01:40;3.92;;;1.30;;
47860;SDS011;33620;52.340;5.984;2023-08-20T14:04:05;8.00;;;2.60;;
47860;SDS011;33620;52.340;5.984;2023-08-20T14:06:30;7.22;;;1.63;;
47860;SDS011;33620;52.340;5.984;2023-08-20T14:08:56;4.63;;;1.40;;
47860;SDS011;33620;52.340;5.984;2023-08-20T14:11:21;6.05;;;1.40;;
47860;SDS011;33620;52.340;5.984;2023-08-20T14:13:47;5.28;;;1.60;;
47860;SDS011;33620;52.340;5.984;2023-08-20T14:16:13;6.32;;;1.67;;
47860;SDS011;33620;52.340;5.984;2023-08-20T14:18:39;5.20;;;1.55;;
47860;SDS011;33620;52.340;5.984;2023-08-20T14:21:05;6.78;;;1.40;;
47860;SDS011;33620;52.340;5.984;2023-08-20T14:23:30;10.05;;;1.65;;
47860;SDS011;33620;52.340;5.984;2023-08-20T14:25:56;5.68;;;1.85;;
47860;SDS011;33620;52.340;5.984;2023-08-20T14:28:21;3.88;;;1.35;;
47860;SDS011;33620;52.340;5.984;2023-08-20T14:30:48;5.38;;;1.50;;
47860;SDS011;33620;52.340;5.984;2023-08-20T14:33:14;9.25;;;2.10;;
47860;SDS011;33620;52.340;5.984;2023-08-20T14:35:40;5.90;;;1.40;;
47860;SDS011;33620;52.340;5.984;2023-08-20T14:38:05;7.22;;;2.13;;
47860;SDS011;33620;52.340;5.984;2023-08-20T14:40:32;6.88;;;1.63;;
47860;SDS011;33620;52.340;5.984;2023-08-20T14:43:03;7.28;;;1.70;;
47860;SDS011;33620;52.340;5.984;2023-08-20T14:45:28;6.38;;;1.58;;